East Meredith, New York
Current Conditions -  °F | °C
As of 11:35 AM on Wednesday 22 Oct 2014 (Local Time) from KNY0 Reporting Station
Overcast Overcast  
Wind Chill: 44°   Ceiling: 2500
Heat Index: 49°   Visibility: 10mi
Dew Point: 44°   Wind: 13mph
Humidity: 83%   Direction: 20°NNE
Pressure: 30.1"   Gusts: NA
Location:  42.42°N, 74.89°W
Report Text: KNY0 221535Z AUTO 02011KT 10SM SCT012 BKN025 OVC044 09/07 A3010 RMK AO2 T00930066
Loading
Personal Weather Stations






























Interactive Weather Map
Tropical Storm Tracking
New forecast layout! Learn more

10-Day Weather Forecast

Advertisements
Track Severe Weather on mobile